createdAt,value
2022-10-05T00:00:35.416Z,101752.67
2022-10-05T00:04:32.977Z,101748.55
2022-10-05T00:08:19.944Z,101749.16
2022-10-05T00:11:56.935Z,101746.78
2022-10-05T00:15:33.952Z,101741.30
2022-10-05T00:19:35.400Z,101738.98
2022-10-05T00:23:19.517Z,101736.10
2022-10-05T00:26:57.961Z,101736.75
2022-10-05T00:30:34.450Z,101736.50
2022-10-05T00:34:10.769Z,101740.73
2022-10-05T00:37:53.671Z,101735.66
2022-10-05T00:41:44.665Z,101731.70
2022-10-05T00:45:28.256Z,101731.52
2022-10-05T00:49:35.454Z,101738.25
2022-10-05T00:53:18.569Z,101741.93
2022-10-05T00:57:02.177Z,101738.70
2022-10-05T01:01:06.467Z,101743.88
2022-10-05T01:04:52.988Z,101743.39
2022-10-05T01:09:03.436Z,101741.45
2022-10-05T01:12:48.857Z,101745.77
2022-10-05T01:16:53.379Z,101742.38
2022-10-05T01:20:51.662Z,101740.20
2022-10-05T01:24:45.189Z,101738.59
2022-10-05T01:28:43.355Z,101735.20
2022-10-05T01:33:01.302Z,101733.08
2022-10-05T01:36:58.799Z,101720.32
2022-10-05T01:40:40.493Z,101717.41
2022-10-05T01:44:21.812Z,101715.55
2022-10-05T01:48:08.133Z,101712.61
2022-10-05T01:52:01.545Z,101707.89
2022-10-05T01:56:02.634Z,101706.04
2022-10-05T02:00:00.406Z,101704.69
2022-10-05T02:03:46.166Z,101705.59
2022-10-05T02:07:54.106Z,101701.34
2022-10-05T02:11:29.985Z,101696.29
2022-10-05T02:15:34.279Z,101694.37
2022-10-05T02:19:36.123Z,101692.48
2022-10-05T02:23:19.504Z,101691.86
2022-10-05T02:26:58.695Z,101684.11
2022-10-05T02:30:42.505Z,101684.05
2022-10-05T02:34:30.631Z,101685.73
2022-10-05T02:38:53.944Z,101679.55
2022-10-05T02:42:41.795Z,101682.92
2022-10-05T02:46:50.963Z,101688.21
2022-10-05T02:50:39.233Z,101682.87
2022-10-05T02:54:24.113Z,101676.50
2022-10-05T02:58:22.575Z,101676.92
2022-10-05T03:02:09.686Z,101666.80
2022-10-05T03:06:01.503Z,101667.06
2022-10-05T03:09:44.440Z,101668.30
2022-10-05T03:13:26.161Z,101665.05
2022-10-05T03:17:17.569Z,101670.09
2022-10-05T03:21:19.136Z,101669.08
2022-10-05T03:25:01.509Z,101667.11
2022-10-05T03:29:14.431Z,101663.66
2022-10-05T03:33:08.715Z,101670.00
2022-10-05T03:36:55.002Z,101674.61
2022-10-05T03:40:44.944Z,101675.03
2022-10-05T03:44:34.961Z,101680.48
2022-10-05T03:48:28.174Z,101687.23
2022-10-05T03:52:15.504Z,101685.89
2022-10-05T03:56:03.360Z,101689.15
2022-10-05T04:00:16.085Z,101688.73
2022-10-05T04:03:59.617Z,101685.67
2022-10-05T04:07:43.642Z,101686.58
2022-10-05T04:11:42.241Z,101682.48
2022-10-05T04:15:43.136Z,101684.19
2022-10-05T04:19:30.562Z,101685.26
2022-10-05T04:23:51.328Z,101668.58
2022-10-05T04:27:42.109Z,101675.05
2022-10-05T04:31:33.904Z,101680.44
2022-10-05T04:35:17.698Z,101677.59
2022-10-05T04:39:20.780Z,101676.76
2022-10-05T04:43:08.724Z,101677.95
2022-10-05T04:47:07.614Z,101677.02
2022-10-05T04:51:31.323Z,101672.36
2022-10-05T04:55:26.453Z,101672.23
2022-10-05T04:59:57.711Z,101674.03
2022-10-05T05:04:01.585Z,101676.72
2022-10-05T05:08:10.594Z,101671.38
2022-10-05T05:12:28.374Z,101674.11
2022-10-05T05:16:36.831Z,101677.45
2022-10-05T05:20:35.460Z,101678.81
2022-10-05T05:24:23.370Z,101681.33
2022-10-05T05:28:04.261Z,101687.02
2022-10-05T05:31:58.029Z,101695.83
2022-10-05T05:35:45.688Z,101696.05
2022-10-05T05:39:54.718Z,101695.90
2022-10-05T05:43:52.208Z,101701.42
2022-10-05T05:47:39.246Z,101709.17
2022-10-05T05:51:20.221Z,101703.59
2022-10-05T05:55:06.518Z,101699.52
2022-10-05T05:58:49.069Z,101708.13
2022-10-05T06:02:32.072Z,101700.99
2022-10-05T06:06:17.820Z,101700.13
2022-10-05T06:10:01.858Z,101706.33
2022-10-05T06:13:43.142Z,101711.48
2022-10-05T06:17:21.942Z,101711.02
2022-10-05T06:21:15.898Z,101716.27
2022-10-05T06:25:30.043Z,101720.96
2022-10-05T06:29:12.005Z,101723.17
2022-10-05T06:33:02.676Z,101729.23
2022-10-05T06:36:51.182Z,101726.29
2022-10-05T06:40:44.234Z,101728.52
2022-10-05T06:45:02.174Z,101729.15
2022-10-05T06:48:38.547Z,101731.42
2022-10-05T06:52:43.738Z,101739.85
2022-10-05T06:56:57.537Z,101744.16
2022-10-05T07:00:51.157Z,101751.16
2022-10-05T07:04:49.352Z,101752.19
2022-10-05T07:08:52.002Z,101758.54
2022-10-05T07:13:09.877Z,101763.44
2022-10-05T07:17:02.399Z,101770.82
2022-10-05T07:20:49.442Z,101772.92
2022-10-05T07:24:55.265Z,101774.09
2022-10-05T07:28:52.948Z,101775.91
2022-10-05T07:32:58.597Z,101782.70
2022-10-05T07:36:37.712Z,101786.50
2022-10-05T07:40:21.592Z,101788.20
2022-10-05T07:44:17.735Z,101789.52
2022-10-05T07:47:57.022Z,101790.61
2022-10-05T07:51:41.388Z,101791.70
2022-10-05T07:55:24.844Z,101792.98
2022-10-05T07:59:12.378Z,101804.39
2022-10-05T08:03:11.645Z,101805.27
2022-10-05T08:06:57.357Z,101816.18
2022-10-05T08:10:59.895Z,101819.82
2022-10-05T08:14:38.562Z,101823.33
2022-10-05T08:18:59.717Z,101827.92
2022-10-05T08:22:47.530Z,101831.92
2022-10-05T08:26:51.398Z,101831.00
2022-10-05T08:30:31.483Z,101838.27
2022-10-05T08:34:14.390Z,101841.42
2022-10-05T08:37:52.971Z,101843.58
2022-10-05T08:41:54.386Z,101846.44
2022-10-05T08:45:42.636Z,101843.84
2022-10-05T08:49:34.997Z,101843.36
2022-10-05T08:53:31.320Z,101842.20
2022-10-05T08:57:16.388Z,101842.42
2022-10-05T09:01:10.085Z,101844.32
2022-10-05T09:05:03.553Z,101846.48
2022-10-05T09:09:37.621Z,101843.66
2022-10-05T09:12:32.464Z,101844.27
2022-10-05T09:16:14.205Z,101851.32
2022-10-05T09:19:55.444Z,101852.55
2022-10-05T09:23:41.846Z,101854.59
2022-10-05T09:27:18.798Z,101861.38
2022-10-05T09:31:23.100Z,101868.57
2022-10-05T09:35:32.444Z,101877.02
2022-10-05T09:39:20.751Z,101873.25
2022-10-05T09:43:28.281Z,101876.10
2022-10-05T09:47:14.348Z,101886.61
2022-10-05T09:51:43.877Z,101889.30
2022-10-05T09:55:35.394Z,101891.21
2022-10-05T09:59:30.685Z,101891.55
2022-10-05T10:03:40.528Z,101897.61
2022-10-05T10:07:21.138Z,101905.02
2022-10-05T10:11:05.855Z,101903.04
2022-10-05T10:15:10.021Z,101897.25
2022-10-05T10:19:04.317Z,101895.27
2022-10-05T10:23:12.823Z,101890.52
2022-10-05T10:27:36.876Z,101887.41
2022-10-05T10:31:51.290Z,101881.30
2022-10-05T10:35:38.383Z,101874.94
2022-10-05T10:39:17.480Z,101868.73
2022-10-05T10:43:05.857Z,101859.85
2022-10-05T10:47:19.675Z,101861.97
2022-10-05T10:51:11.368Z,101860.20
2022-10-05T10:55:16.311Z,101855.29
2022-10-05T10:59:32.132Z,101856.74
2022-10-05T11:03:36.647Z,101857.95
2022-10-05T11:07:46.332Z,101851.00
2022-10-05T11:11:41.204Z,101852.62
2022-10-05T11:15:48.172Z,101847.20
2022-10-05T11:20:03.260Z,101845.75
2022-10-05T11:23:55.450Z,101839.98
2022-10-05T11:27:37.265Z,101838.70
2022-10-05T11:31:26.664Z,101838.20
2022-10-05T11:35:40.392Z,101843.20
2022-10-05T11:39:28.660Z,101844.72
2022-10-05T11:43:23.806Z,101838.27
2022-10-05T11:47:48.747Z,101837.18
2022-10-05T11:51:33.440Z,101832.58
2022-10-05T11:55:33.433Z,101838.34
2022-10-05T11:59:18.681Z,101834.77
2022-10-05T12:03:12.550Z,101832.53
2022-10-05T12:07:27.134Z,101833.39
2022-10-05T12:11:22.820Z,101826.96
2022-10-05T12:15:23.916Z,101822.52
2022-10-05T12:19:18.466Z,101824.00
2022-10-05T12:23:13.653Z,101820.70
2022-10-05T12:26:58.661Z,101818.53
2022-10-05T12:31:00.605Z,101812.90
2022-10-05T12:34:56.516Z,101805.98
2022-10-05T12:39:03.205Z,101800.23
2022-10-05T12:43:15.174Z,101793.15
2022-10-05T12:47:28.596Z,101780.66
2022-10-05T12:51:22.670Z,101766.79
2022-10-05T12:55:26.259Z,101767.81
2022-10-05T12:59:04.989Z,101767.45
2022-10-05T13:02:48.827Z,101759.39
2022-10-05T13:07:00.283Z,101752.95
2022-10-05T13:10:48.640Z,101750.41
2022-10-05T13:14:49.249Z,101746.27
2022-10-05T13:18:54.327Z,101741.85
2022-10-05T13:22:42.698Z,101744.27
2022-10-05T13:26:33.324Z,101737.77
2022-10-05T13:30:22.356Z,101736.02
2022-10-05T13:34:20.083Z,101738.89
2022-10-05T13:38:10.467Z,101734.05
2022-10-05T13:41:55.623Z,101732.54
2022-10-05T13:45:58.306Z,101729.95
2022-10-05T13:49:50.170Z,101728.35
2022-10-05T13:53:45.739Z,101729.65
2022-10-05T13:58:01.639Z,101737.77
2022-10-05T14:01:49.381Z,101739.41
2022-10-05T14:05:31.295Z,101735.16
2022-10-05T14:09:13.447Z,101739.08
2022-10-05T14:12:54.409Z,101743.60
2022-10-05T14:16:32.740Z,101739.34
2022-10-05T14:20:31.374Z,101741.12
2022-10-05T14:24:46.638Z,101742.55
2022-10-05T14:28:32.777Z,101734.58
2022-10-05T14:32:17.171Z,101733.88
2022-10-05T14:35:55.953Z,101731.02
2022-10-05T14:39:34.574Z,101727.74
2022-10-05T14:43:16.718Z,101724.56
2022-10-05T14:47:23.707Z,101723.91
2022-10-05T14:50:31.652Z,101721.92
2022-10-05T14:54:47.232Z,101720.77
2022-10-05T14:58:42.016Z,101721.67
2022-10-05T15:02:55.511Z,101726.90
2022-10-05T15:06:41.796Z,101733.31
2022-10-05T15:10:51.155Z,101735.44
2022-10-05T15:14:47.254Z,101734.92
2022-10-05T15:18:42.990Z,101731.13
2022-10-05T15:23:04.227Z,101733.88
2022-10-05T15:26:50.394Z,101737.84
2022-10-05T15:30:26.715Z,101740.33
2022-10-05T15:34:37.731Z,101737.89
2022-10-05T15:38:25.727Z,101749.09
2022-10-05T15:42:16.315Z,101748.95
2022-10-05T15:46:02.490Z,101753.80
2022-10-05T15:50:18.521Z,101758.55
2022-10-05T15:54:19.885Z,101762.75
2022-10-05T15:58:02.532Z,101759.61
2022-10-05T16:01:50.734Z,101762.27
2022-10-05T16:05:51.743Z,101758.09
2022-10-05T16:09:40.670Z,101759.79
2022-10-05T16:13:22.821Z,101751.52
2022-10-05T16:17:44.801Z,101751.77
2022-10-05T16:22:04.136Z,101756.27
2022-10-05T16:25:54.192Z,101757.13
2022-10-05T16:29:48.713Z,101759.61
2022-10-05T16:33:47.000Z,101763.34
2022-10-05T16:37:38.807Z,101764.42
2022-10-05T16:41:38.038Z,101758.77
2022-10-05T16:45:44.713Z,101761.52
2022-10-05T16:49:38.958Z,101766.20
2022-10-05T16:53:23.403Z,101770.38
2022-10-05T16:57:09.178Z,101775.20
2022-10-05T17:01:01.019Z,101778.93
2022-10-05T17:04:42.643Z,101779.36
2022-10-05T17:08:38.155Z,101784.17
2022-10-05T17:12:23.380Z,101787.00
2022-10-05T17:16:19.372Z,101786.91
2022-10-05T17:20:13.606Z,101786.69
2022-10-05T17:23:58.802Z,101792.58
2022-10-05T17:27:57.110Z,101797.35
2022-10-05T17:32:30.588Z,101807.83
2022-10-05T17:36:17.691Z,101815.41
2022-10-05T17:39:58.030Z,101813.29
2022-10-05T17:43:36.181Z,101813.47
2022-10-05T17:47:12.911Z,101816.77
2022-10-05T17:51:28.210Z,101821.20
2022-10-05T17:54:45.764Z,101824.89
2022-10-05T17:58:26.004Z,101828.04
2022-10-05T18:02:37.848Z,101833.08
2022-10-05T18:06:26.385Z,101837.02
2022-10-05T18:10:12.273Z,101842.70
2022-10-05T18:14:07.959Z,101845.43
2022-10-05T18:18:26.363Z,101850.70
2022-10-05T18:22:28.804Z,101854.35
2022-10-05T18:26:35.407Z,101860.90
2022-10-05T18:30:23.955Z,101867.63
2022-10-05T18:34:35.996Z,101866.54
2022-10-05T18:38:49.321Z,101872.84
2022-10-05T18:42:25.104Z,101879.85
2022-10-05T18:46:15.714Z,101877.27
2022-10-05T18:50:29.782Z,101886.13
2022-10-05T18:54:18.424Z,101889.87
2022-10-05T18:58:03.517Z,101899.18
2022-10-05T19:02:04.650Z,101903.45
2022-10-05T19:05:59.795Z,101907.95
2022-10-05T19:09:38.896Z,101913.60
2022-10-05T19:13:20.761Z,101912.04
2022-10-05T19:17:25.312Z,101915.73
2022-10-05T19:21:38.231Z,101917.86
2022-10-05T19:25:22.093Z,101917.77
2022-10-05T19:29:15.411Z,101922.17
2022-10-05T19:33:03.187Z,101924.20
2022-10-05T19:36:58.275Z,101924.64
2022-10-05T19:40:49.415Z,101922.40
2022-10-05T19:44:46.750Z,101926.69
2022-10-05T19:48:36.119Z,101926.27
2022-10-05T19:52:19.936Z,101932.39
2022-10-05T19:56:10.911Z,101935.58
2022-10-05T19:59:48.533Z,101943.45
2022-10-05T20:03:30.917Z,101943.96
2022-10-05T20:07:11.500Z,101948.77
2022-10-05T20:11:07.944Z,101949.16
2022-10-05T20:14:44.587Z,101950.89
2022-10-05T20:18:46.282Z,101958.23
2022-10-05T20:22:38.445Z,101963.50
2022-10-05T20:26:39.019Z,101964.94
2022-10-05T20:30:19.610Z,101964.23
2022-10-05T20:33:55.675Z,101972.27
2022-10-05T20:37:36.917Z,101973.25
2022-10-05T20:41:12.737Z,101979.10
2022-10-05T20:44:54.292Z,101984.69
2022-10-05T20:48:32.711Z,101985.71
2022-10-05T20:52:11.489Z,101984.61
2022-10-05T20:55:48.232Z,101983.02
2022-10-05T20:59:26.272Z,101989.27
2022-10-05T21:03:04.441Z,101990.52
2022-10-05T21:06:40.840Z,101986.73
2022-10-05T21:10:22.198Z,101986.16
2022-10-05T21:13:54.467Z,101983.23
2022-10-05T21:17:32.832Z,101976.78
2022-10-05T21:21:09.488Z,101979.33
2022-10-05T21:24:46.020Z,101982.58
2022-10-05T21:28:22.902Z,101983.04
2022-10-05T21:31:59.356Z,101976.59
2022-10-05T21:35:35.674Z,101974.61
2022-10-05T21:39:14.463Z,101970.17
2022-10-05T21:42:50.952Z,101969.54
2022-10-05T21:46:28.102Z,101972.27
2022-10-05T21:50:04.573Z,101975.27
2022-10-05T21:53:46.102Z,101975.15
2022-10-05T21:57:22.321Z,101982.45
2022-10-05T22:00:58.891Z,101985.34
2022-10-05T22:04:36.825Z,101985.33
2022-10-05T22:08:28.554Z,101984.35
2022-10-05T22:12:04.941Z,101983.66
2022-10-05T22:15:43.941Z,101990.56
2022-10-05T22:19:20.694Z,101985.72
2022-10-05T22:22:57.522Z,101986.99
2022-10-05T22:26:34.117Z,101982.68
2022-10-05T22:30:11.007Z,101987.27
2022-10-05T22:33:48.152Z,101984.50
2022-10-05T22:37:25.515Z,101985.52
2022-10-05T22:41:01.943Z,101982.67
2022-10-05T22:44:38.724Z,101986.45
2022-10-05T22:48:14.916Z,101983.38
2022-10-05T22:51:54.012Z,101983.14
2022-10-05T22:55:29.992Z,101984.49
2022-10-05T22:59:06.877Z,101974.23
2022-10-05T23:02:45.056Z,101973.96
2022-10-05T23:06:21.283Z,101973.91
2022-10-05T23:09:57.717Z,101972.02
2022-10-05T23:13:34.667Z,101966.05
2022-10-05T23:17:11.406Z,101957.40
2022-10-05T23:20:55.558Z,101952.30
2022-10-05T23:24:31.339Z,101948.26
2022-10-05T23:28:08.099Z,101950.21
2022-10-05T23:31:45.843Z,101942.05
2022-10-05T23:35:23.170Z,101943.65
2022-10-05T23:39:00.049Z,101945.84
2022-10-05T23:42:36.683Z,101939.11
2022-10-05T23:46:13.551Z,101938.21
2022-10-05T23:49:49.460Z,101937.34
2022-10-05T23:53:27.315Z,101935.53
2022-10-05T23:57:06.512Z,101937.39
